Time;durP1;ratioP1;P1;durP2;ratioP2;P2;SDS_P1;SDS_P2;PMS_P1;PMS_P2;Temp;Humidity;BMP_temperature;BMP_pressure;BME280_temperature;BME280_humidity;BME280_pressure;Samples;Min_cycle;Max_cycle;Signal;HPM_P1;HPM_P2
2021/07/10 00:01:35;;;;;;;19.67;14.00;;;15.70;99.80;;;;;;4920888;29;20467;-89
2021/07/10 00:04:05;;;;;;;18.87;13.70;;;15.70;99.80;;;;;;4923157;29;20565;-89
2021/07/10 00:06:33;;;;;;;18.03;13.47;;;15.70;99.80;;;;;;4928027;29;20511;-88
2021/07/10 00:09:01;;;;;;;21.30;13.20;;;15.60;99.80;;;;;;4920890;29;20470;-89
2021/07/10 00:11:29;;;;;;;20.03;13.30;;;15.60;99.80;;;;;;4924721;29;20483;-89
2021/07/10 00:13:57;;;;;;;17.07;13.43;;;15.60;99.80;;;;;;4904333;29;21031;-89
2021/07/10 00:16:26;;;;;;;19.97;13.10;;;15.60;99.80;;;;;;4915872;29;20480;-88
2021/07/10 00:18:54;;;;;;;21.67;14.23;;;15.50;99.80;;;;;;4926924;29;20484;-89
2021/07/10 00:21:22;;;;;;;15.93;13.20;;;15.50;99.80;;;;;;4926112;28;20835;-88
2021/07/10 00:23:51;;;;;;;15.90;11.60;;;15.50;99.80;;;;;;4920365;29;20489;-88
2021/07/10 00:26:19;;;;;;;19.50;13.63;;;15.60;99.80;;;;;;4923431;29;21027;-89
2021/07/10 00:28:47;;;;;;;19.00;12.40;;;15.60;99.80;;;;;;4921833;29;20506;-88
2021/07/10 00:31:15;;;;;;;25.23;12.90;;;15.60;99.80;;;;;;4902020;29;20490;-89
2021/07/10 00:33:45;;;;;;;21.50;14.67;;;15.60;99.80;;;;;;4909538;29;20544;-89
2021/07/10 00:36:13;;;;;;;17.13;12.30;;;15.50;99.80;;;;;;4911364;29;20491;-89
2021/07/10 00:38:41;;;;;;;16.47;12.90;;;15.50;99.80;;;;;;4905815;29;20531;-89
2021/07/10 00:41:09;;;;;;;31.53;13.43;;;15.50;99.80;;;;;;4916106;29;21000;-88
2021/07/10 00:43:37;;;;;;;21.07;13.27;;;15.50;99.80;;;;;;4932685;29;21030;-88
2021/07/10 00:46:07;;;;;;;16.53;12.57;;;15.40;99.80;;;;;;4918923;29;21191;-89
2021/07/10 00:48:35;;;;;;;19.27;13.73;;;15.40;99.80;;;;;;4926924;29;20491;-88
2021/07/10 00:51:05;;;;;;;16.10;12.60;;;15.30;99.80;;;;;;4919227;29;21282;-88
2021/07/10 00:53:33;;;;;;;21.23;12.00;;;15.30;99.80;;;;;;4924575;29;20486;-89
2021/07/10 00:56:01;;;;;;;20.80;12.63;;;15.30;99.80;;;;;;4925681;28;20500;-89
2021/07/10 00:58:29;;;;;;;14.80;13.27;;;15.30;99.80;;;;;;4925294;29;20481;-88
2021/07/10 01:00:57;;;;;;;16.17;12.43;;;15.30;99.80;;;;;;4928837;29;20478;-88
2021/07/10 01:03:28;;;;;;;16.67;13.20;;;15.30;99.80;;;;;;4927616;29;20489;-89
2021/07/10 01:05:56;;;;;;;17.17;12.07;;;15.20;99.80;;;;;;4922417;29;20548;-90
2021/07/10 01:08:25;;;;;;;17.43;13.50;;;15.20;99.80;;;;;;4918467;29;20481;-89
2021/07/10 01:10:54;;;;;;;20.70;13.20;;;15.20;99.80;;;;;;4901818;29;20482;-89
2021/07/10 01:13:22;;;;;;;18.17;12.80;;;15.20;99.80;;;;;;4921287;29;20482;-88
2021/07/10 01:15:50;;;;;;;21.07;13.70;;;15.20;99.80;;;;;;4929666;28;21048;-88
2021/07/10 01:18:18;;;;;;;16.50;12.10;;;15.20;99.80;;;;;;4934410;28;20478;-89
2021/07/10 01:20:49;;;;;;;21.70;12.70;;;15.20;99.80;;;;;;4929778;28;20482;-89
2021/07/10 01:23:28;;;;;;;23.80;12.80;;;15.10;99.80;;;;;;4927734;28;20492;-89
2021/07/10 01:26:02;;;;;;;15.90;12.73;;;15.10;99.80;;;;;;4917862;28;20479;-89
2021/07/10 01:28:30;;;;;;;18.30;13.40;;;15.10;99.80;;;;;;4927066;29;20856;-88
2021/07/10 01:30:59;;;;;;;18.83;12.50;;;15.10;99.80;;;;;;4911410;29;20475;-88
2021/07/10 01:33:28;;;;;;;16.73;12.67;;;15.00;99.80;;;;;;4932748;28;20486;-88
2021/07/10 01:35:57;;;;;;;16.17;12.67;;;15.00;99.80;;;;;;4929539;28;20986;-89
2021/07/10 01:38:25;;;;;;;19.00;13.40;;;15.00;99.80;;;;;;4932888;29;20506;-89
2021/07/10 01:40:53;;;;;;;25.63;14.73;;;15.00;99.80;;;;;;4930197;29;20885;-89
2021/07/10 01:43:21;;;;;;;20.10;13.40;;;15.00;99.80;;;;;;4919817;29;20496;-89
2021/07/10 01:45:49;;;;;;;18.47;13.77;;;14.90;99.80;;;;;;4919103;29;20479;-88
2021/07/10 01:48:18;;;;;;;18.90;13.93;;;15.00;99.80;;;;;;4934051;28;20477;-89
2021/07/10 01:50:47;;;;;;;17.10;14.63;;;15.00;99.80;;;;;;4915342;29;20529;-89
2021/07/10 01:53:17;;;;;;;19.30;14.03;;;15.00;99.80;;;;;;4928416;28;20478;-89
2021/07/10 01:55:46;;;;;;;23.70;14.57;;;15.00;99.80;;;;;;4918056;29;20482;-88
2021/07/10 01:58:14;;;;;;;21.13;15.30;;;14.90;99.80;;;;;;4929131;29;20480;-89
2021/07/10 02:00:45;;;;;;;17.70;14.73;;;14.90;99.80;;;;;;4934268;29;20559;-89
2021/07/10 02:03:13;;;;;;;21.23;15.03;;;14.90;99.80;;;;;;4935482;29;21283;-88
2021/07/10 02:05:42;;;;;;;32.17;15.93;;;14.90;99.80;;;;;;4929349;29;20450;-90
2021/07/10 02:08:10;;;;;;;22.00;14.80;;;14.90;99.80;;;;;;4935676;29;20434;-90
2021/07/10 02:10:39;;;;;;;20.47;15.70;;;14.90;99.80;;;;;;4935500;29;20936;-91
2021/07/10 02:13:10;;;;;;;18.13;15.73;;;14.80;99.80;;;;;;4938486;29;20892;-89
2021/07/10 02:15:39;;;;;;;20.87;16.20;;;14.80;99.80;;;;;;4931265;29;20992;-88
2021/07/10 02:18:07;;;;;;;27.00;15.53;;;14.80;99.80;;;;;;4937739;29;20458;-89
2021/07/10 02:20:36;;;;;;;23.30;14.70;;;14.80;99.80;;;;;;4909740;29;20461;-90
2021/07/10 02:23:04;;;;;;;22.10;14.33;;;14.80;99.80;;;;;;4919022;29;20479;-89
2021/07/10 02:25:33;;;;;;;19.60;16.07;;;14.70;99.80;;;;;;4927331;29;20485;-89
2021/07/10 02:28:02;;;;;;;25.77;16.73;;;14.70;99.80;;;;;;4917333;29;20477;-89
2021/07/10 02:30:33;;;;;;;21.17;15.30;;;14.70;99.80;;;;;;4919374;29;20477;-89
2021/07/10 02:33:04;;;;;;;26.57;15.03;;;14.70;99.80;;;;;;4916866;29;20511;-89
2021/07/10 02:35:33;;;;;;;16.80;14.20;;;14.60;99.80;;;;;;4921546;29;20511;-88
2021/07/10 02:38:01;;;;;;;20.63;14.73;;;14.60;99.80;;;;;;4919085;29;20482;-89
2021/07/10 02:40:29;;;;;;;20.37;14.40;;;14.60;99.80;;;;;;4925566;29;20501;-89
2021/07/10 02:42:58;;;;;;;19.20;15.10;;;14.60;99.80;;;;;;4923109;29;20914;-89
2021/07/10 02:45:27;;;;;;;19.80;15.40;;;14.60;99.80;;;;;;4919431;29;20485;-89
2021/07/10 02:47:57;;;;;;;22.70;15.30;;;14.60;99.80;;;;;;4927480;29;20855;-90
2021/07/10 02:50:26;;;;;;;24.33;17.23;;;14.60;99.80;;;;;;4931829;28;20512;-89
2021/07/10 02:52:55;;;;;;;26.53;17.10;;;14.60;99.80;;;;;;4932147;29;20496;-89
2021/07/10 02:55:24;;;;;;;20.80;16.70;;;14.60;99.80;;;;;;4926903;29;20474;-89
2021/07/10 02:57:52;;;;;;;34.60;17.97;;;14.50;99.80;;;;;;4923127;29;20478;-89
2021/07/10 03:00:23;;;;;;;67.83;18.13;;;14.50;99.80;;;;;;4919798;28;20492;-89
2021/07/10 03:02:52;;;;;;;38.80;17.33;;;14.50;99.80;;;;;;4939862;29;20483;-89
2021/07/10 03:05:20;;;;;;;36.37;16.37;;;14.50;99.80;;;;;;4910328;29;21049;-89
2021/07/10 03:07:49;;;;;;;38.30;15.83;;;14.50;99.80;;;;;;4913288;29;20850;-88
2021/07/10 03:10:19;;;;;;;29.93;16.63;;;14.50;99.80;;;;;;4924383;29;20971;-89
2021/07/10 03:12:48;;;;;;;29.67;15.07;;;14.50;99.80;;;;;;4927983;29;20481;-89
2021/07/10 03:15:17;;;;;;;42.83;16.10;;;14.40;99.80;;;;;;4928977;29;20481;-88
2021/07/10 03:17:48;;;;;;;24.93;15.70;;;14.50;99.80;;;;;;4928716;29;20473;-89
2021/07/10 03:20:21;;;;;;;28.13;14.40;;;14.40;99.80;;;;;;4931176;29;20933;-90
2021/07/10 03:22:49;;;;;;;29.20;13.97;;;14.40;99.80;;;;;;4930661;29;20487;-89
2021/07/10 03:25:18;;;;;;;26.20;15.83;;;14.40;99.80;;;;;;4932412;29;20487;-89
2021/07/10 03:27:56;;;;;;;25.30;15.20;;;14.40;99.80;;;;;;4924927;29;20473;-89
2021/07/10 03:30:24;;;;;;;30.40;15.97;;;14.40;99.80;;;;;;4923029;29;20478;-89
2021/07/10 03:32:52;;;;;;;26.40;15.80;;;14.50;99.80;;;;;;4928708;29;20516;-89
2021/07/10 03:35:23;;;;;;;25.50;15.87;;;14.50;99.80;;;;;;4918226;29;20478;-89
2021/07/10 03:37:52;;;;;;;43.37;16.30;;;14.50;99.80;;;;;;4909315;29;20478;-88
2021/07/10 03:40:22;;;;;;;31.33;15.20;;;14.60;99.80;;;;;;4906998;29;21012;-89
2021/07/10 03:42:53;;;;;;;34.37;15.40;;;14.60;99.80;;;;;;4898826;29;20486;-89
2021/07/10 03:45:22;;;;;;;36.37;15.93;;;14.60;99.80;;;;;;4905267;29;20489;-89
2021/07/10 03:47:50;;;;;;;33.97;15.50;;;14.60;99.80;;;;;;4903791;29;20466;-89
2021/07/10 03:50:19;;;;;;;29.53;15.90;;;14.70;99.80;;;;;;4902191;29;20481;-89
2021/07/10 03:52:49;;;;;;;29.10;14.37;;;14.70;99.80;;;;;;4910448;29;20482;-89
2021/07/10 03:55:18;;;;;;;30.67;13.90;;;14.70;99.80;;;;;;4909546;29;20968;-89
2021/07/10 03:57:46;;;;;;;20.13;13.40;;;14.80;99.80;;;;;;4909309;29;20485;-89
2021/07/10 04:00:16;;;;;;;24.73;14.10;;;14.80;99.80;;;;;;4905944;29;20524;-89
2021/07/10 04:02:44;;;;;;;29.73;14.10;;;14.90;99.80;;;;;;4919319;29;21049;-89
2021/07/10 04:05:13;;;;;;;35.47;13.80;;;14.90;99.80;;;;;;4911550;29;21149;-88
2021/07/10 04:07:42;;;;;;;19.43;13.37;;;14.90;99.80;;;;;;4909765;29;21003;-89
2021/07/10 04:10:13;;;;;;;31.73;14.93;;;15.00;99.80;;;;;;4901880;29;20476;-89
2021/07/10 04:12:43;;;;;;;23.50;13.63;;;15.00;99.80;;;;;;4911371;29;20499;-90
2021/07/10 04:15:13;;;;;;;23.50;14.00;;;15.00;99.80;;;;;;4916221;29;20484;-91
2021/07/10 04:17:41;;;;;;;16.93;14.20;;;15.10;99.80;;;;;;4903372;29;21275;-89
2021/07/10 04:20:11;;;;;;;17.10;14.27;;;15.10;99.80;;;;;;4903736;29;20486;-90
2021/07/10 04:22:40;;;;;;;18.27;13.30;;;15.20;99.80;;;;;;4899830;29;20484;-89
2021/07/10 04:25:12;;;;;;;16.60;13.30;;;15.20;99.80;;;;;;4916371;29;20850;-90
2021/07/10 04:27:43;;;;;;;16.97;13.20;;;15.20;99.80;;;;;;4907306;29;20481;-89
2021/07/10 04:30:12;;;;;;;15.53;13.23;;;15.20;99.80;;;;;;4897791;29;20554;-89
2021/07/10 04:32:41;;;;;;;16.70;12.30;;;15.30;99.80;;;;;;4911442;29;20489;-91
2021/07/10 04:35:11;;;;;;;15.13;12.67;;;15.30;99.80;;;;;;4912347;29;20466;-90
2021/07/10 04:37:39;;;;;;;16.93;13.80;;;15.40;99.80;;;;;;4912539;29;20484;-89
2021/07/10 04:40:08;;;;;;;15.60;13.30;;;15.40;99.80;;;;;;4904525;29;20479;-90
2021/07/10 04:42:38;;;;;;;19.50;13.30;;;15.40;99.80;;;;;;4901164;29;20488;-90
2021/07/10 04:45:08;;;;;;;22.03;14.17;;;15.50;99.80;;;;;;4907233;29;20481;-89
2021/07/10 04:47:36;;;;;;;18.30;12.77;;;15.60;99.80;;;;;;4912152;29;20904;-90
2021/07/10 04:50:06;;;;;;;15.37;13.27;;;15.70;99.80;;;;;;4902642;29;20506;-90
2021/07/10 04:52:34;;;;;;;16.90;13.63;;;15.80;99.80;;;;;;4898039;29;20566;-89
2021/07/10 04:55:03;;;;;;;14.87;12.17;;;15.90;99.80;;;;;;4918686;29;20473;-89
2021/07/10 04:57:31;;;;;;;21.73;13.13;;;16.00;99.80;;;;;;4911271;29;20479;-90
2021/07/10 05:00:00;;;;;;;19.80;12.60;;;16.10;99.80;;;;;;4905102;29;20493;-89
2021/07/10 05:02:28;;;;;;;14.43;12.33;;;16.30;99.80;;;;;;4921869;29;20482;-90
2021/07/10 05:04:57;;;;;;;16.70;12.37;;;;;;;;;;4911757;29;20465;-90
2021/07/10 05:07:25;;;;;;;17.13;11.80;;;16.50;99.80;;;;;;4912016;29;21229;-89
2021/07/10 05:09:53;;;;;;;14.10;11.00;;;16.60;99.80;;;;;;4906021;29;20498;-89
2021/07/10 05:12:22;;;;;;;19.83;13.10;;;16.70;99.80;;;;;;4905058;29;20476;-89
2021/07/10 05:14:51;;;;;;;20.50;12.20;;;16.70;99.80;;;;;;4905161;29;20535;-89
2021/07/10 05:17:21;;;;;;;18.13;11.50;;;16.70;99.80;;;;;;4909213;29;20869;-90
2021/07/10 05:19:50;;;;;;;14.80;12.03;;;16.70;99.80;;;;;;4910738;29;20975;-89
2021/07/10 05:22:18;;;;;;;15.60;12.90;;;16.60;99.80;;;;;;4907344;29;20476;-90
2021/07/10 05:24:50;;;;;;;17.20;12.50;;;16.50;99.80;;;;;;4903742;29;20483;-89
2021/07/10 05:27:18;;;;;;;15.90;13.70;;;16.40;99.80;;;;;;4905681;29;20479;-89
2021/07/10 05:29:46;;;;;;;14.87;12.90;;;16.30;99.80;;;;;;4906188;29;20486;-90
2021/07/10 05:32:15;;;;;;;20.70;15.47;;;16.20;99.80;;;;;;4900508;29;20902;-89
2021/07/10 05:34:45;;;;;;;18.40;13.57;;;16.20;99.80;;;;;;4906146;29;20483;-90
2021/07/10 05:37:13;;;;;;;22.70;13.90;;;16.10;99.80;;;;;;4905135;29;20841;-90
2021/07/10 05:39:42;;;;;;;15.73;13.00;;;16.10;99.80;;;;;;4907486;29;20510;-90
2021/07/10 05:42:11;;;;;;;21.30;13.83;;;16.10;99.80;;;;;;4906252;29;20483;-89
2021/07/10 05:44:39;;;;;;;24.40;13.80;;;16.10;99.80;;;;;;4903115;29;20473;-90
2021/07/10 05:47:07;;;;;;;17.27;13.80;;;16.20;99.80;;;;;;4911372;29;20477;-90
2021/07/10 05:49:35;;;;;;;14.73;12.77;;;;;;;;;;4911810;29;21002;-89
2021/07/10 05:52:05;;;;;;;17.23;13.43;;;16.30;99.80;;;;;;4904786;29;20468;-91
2021/07/10 05:54:33;;;;;;;16.77;14.53;;;16.40;99.80;;;;;;4922391;29;20483;-90
2021/07/10 05:57:01;;;;;;;21.87;14.77;;;16.40;99.80;;;;;;4925509;29;20474;-89
2021/07/10 05:59:29;;;;;;;18.60;13.07;;;16.40;99.80;;;;;;4915038;29;20488;-89
2021/07/10 06:01:57;;;;;;;20.33;14.60;;;16.40;99.80;;;;;;4942057;29;20481;-89
2021/07/10 06:04:25;;;;;;;15.43;13.53;;;16.40;99.80;;;;;;4928708;29;20501;-91
2021/07/10 06:06:53;;;;;;;20.00;14.30;;;16.40;99.80;;;;;;4928249;29;20479;-91
2021/07/10 06:09:22;;;;;;;16.57;14.33;;;16.40;99.80;;;;;;4926656;29;20488;-90
2021/07/10 06:11:50;;;;;;;19.23;14.70;;;16.40;99.80;;;;;;4911924;29;20865;-90
2021/07/10 06:14:18;;;;;;;19.70;14.83;;;16.40;99.80;;;;;;4908266;29;20488;-89
2021/07/10 06:16:46;;;;;;;21.73;15.03;;;16.40;99.80;;;;;;4923092;29;21013;-88
2021/07/10 06:19:14;;;;;;;19.00;15.67;;;16.40;99.80;;;;;;4924671;29;20478;-87
2021/07/10 06:21:42;;;;;;;20.77;15.40;;;16.40;99.80;;;;;;4925256;29;20480;-88
2021/07/10 06:24:11;;;;;;;21.97;16.30;;;16.40;99.80;;;;;;4922081;29;20482;-90
2021/07/10 06:26:40;;;;;;;23.90;16.57;;;16.50;99.80;;;;;;4919994;29;20481;-90
2021/07/10 06:29:08;;;;;;;20.33;16.50;;;;;;;;;;4924561;29;20569;-85
2021/07/10 06:31:36;;;;;;;22.50;17.00;;;16.80;99.80;;;;;;4925545;29;20485;-87
2021/07/10 06:34:06;;;;;;;26.70;17.63;;;17.00;99.80;;;;;;4916578;29;21210;-87
2021/07/10 06:36:34;;;;;;;26.43;16.10;;;17.20;99.80;;;;;;4924218;29;20487;-87
2021/07/10 06:39:02;;;;;;;20.27;16.43;;;17.30;99.80;;;;;;4916649;29;20473;-87
2021/07/10 06:41:30;;;;;;;21.20;16.50;;;17.40;99.80;;;;;;4910487;29;21010;-87
2021/07/10 06:44:00;;;;;;;19.23;15.87;;;17.50;99.80;;;;;;4925277;28;20498;-86
2021/07/10 06:46:28;;;;;;;25.23;16.00;;;17.60;99.80;;;;;;4924869;29;20503;-85
2021/07/10 06:48:56;;;;;;;20.30;16.30;;;17.70;99.80;;;;;;4924277;29;20484;-86
2021/07/10 06:51:24;;;;;;;19.77;16.23;;;17.80;99.80;;;;;;4928283;29;20490;-85
2021/07/10 06:53:52;;;;;;;20.37;16.93;;;17.80;99.80;;;;;;4924389;29;20475;-90
2021/07/10 06:56:21;;;;;;;25.10;17.83;;;;;;;;;;4930495;29;20477;-91
2021/07/10 06:58:50;;;;;;;21.47;16.20;;;;;;;;;;4929314;29;21070;-91
2021/07/10 07:01:19;;;;;;;20.80;16.90;;;18.00;99.80;;;;;;4932880;29;20486;-90
2021/07/10 07:03:48;;;;;;;20.77;17.60;;;18.10;99.80;;;;;;4933300;29;20999;-92
2021/07/10 07:06:16;;;;;;;22.17;17.87;;;18.20;99.80;;;;;;4928541;29;21023;-91
2021/07/10 07:08:44;;;;;;;20.73;16.77;;;;;;;;;;4926975;29;20487;-92
2021/07/10 07:11:12;;;;;;;24.03;18.30;;;18.30;99.80;;;;;;4924023;29;20480;-92
2021/07/10 07:13:40;;;;;;;21.53;17.63;;;18.40;99.80;;;;;;4923747;29;20524;-91
2021/07/10 07:16:09;;;;;;;20.20;16.73;;;;;;;;;;4928200;29;20522;-91
2021/07/10 07:18:38;;;;;;;19.77;16.57;;;18.80;99.80;;;;;;4938811;29;20984;-90
2021/07/10 07:21:06;;;;;;;24.07;17.87;;;18.90;99.80;;;;;;4932236;29;20476;-92
2021/07/10 07:23:35;;;;;;;20.33;16.57;;;19.00;99.80;;;;;;4931973;29;20567;-91
2021/07/10 07:26:04;;;;;;;19.47;15.03;;;19.20;99.80;;;;;;4932389;29;20491;-91
2021/07/10 07:28:32;;;;;;;19.40;15.83;;;;;;;;;;4922111;29;20569;-91
2021/07/10 07:31:01;;;;;;;23.67;16.60;;;19.30;99.80;;;;;;4907690;29;21374;-89
2021/07/10 07:33:30;;;;;;;22.97;17.30;;;;;;;;;;4919753;29;20485;-90
2021/07/10 07:36:02;;;;;;;18.93;16.30;;;18.90;99.80;;;;;;4910288;29;20484;-89
2021/07/10 07:38:30;;;;;;;22.50;16.90;;;18.90;99.80;;;;;;4903407;29;20484;-89
2021/07/10 07:40:59;;;;;;;22.30;16.83;;;19.00;99.80;;;;;;4913770;29;20477;-89
2021/07/10 07:43:27;;;;;;;21.67;17.50;;;19.10;99.80;;;;;;4899216;29;20485;-89
2021/07/10 07:45:55;;;;;;;23.40;17.27;;;19.00;99.80;;;;;;4904231;29;20482;-90
2021/07/10 07:48:23;;;;;;;17.07;15.27;;;19.10;99.80;;;;;;4910361;29;20496;-90
2021/07/10 07:50:52;;;;;;;21.03;17.30;;;19.10;99.80;;;;;;4892812;29;20477;-89
2021/07/10 07:53:21;;;;;;;17.93;14.60;;;19.20;99.80;;;;;;4908080;29;21039;-89
2021/07/10 07:55:50;;;;;;;20.37;14.70;;;19.30;99.80;;;;;;4904144;29;20483;-89
2021/07/10 07:58:18;;;;;;;20.17;14.43;;;19.40;99.80;;;;;;4904721;29;20473;-89
2021/07/10 08:00:46;;;;;;;18.90;14.60;;;;;;;;;;4907489;29;20611;-90
2021/07/10 08:03:14;;;;;;;19.50;16.27;;;19.70;99.80;;;;;;4918583;29;20825;-89
2021/07/10 08:05:42;;;;;;;21.37;15.33;;;19.80;99.80;;;;;;4913684;29;20465;-90
2021/07/10 08:08:12;;;;;;;20.53;13.97;;;;;;;;;;4913037;29;20466;-89
2021/07/10 08:10:41;;;;;;;16.00;13.77;;;20.00;99.80;;;;;;4909751;29;20486;-90
2021/07/10 08:13:09;;;;;;;20.40;14.37;;;20.20;99.80;;;;;;4906562;29;20489;-89
2021/07/10 08:15:37;;;;;;;16.20;13.70;;;20.40;99.80;;;;;;4903384;29;20513;-89
2021/07/10 08:18:05;;;;;;;18.73;13.43;;;20.60;99.80;;;;;;4903480;29;20851;-90
2021/07/10 08:20:34;;;;;;;15.63;12.63;;;;;;;;;;4901915;29;20508;-90
2021/07/10 08:23:02;;;;;;;18.93;12.10;;;20.70;99.80;;;;;;4902321;29;20485;-89
2021/07/10 08:25:31;;;;;;;29.47;12.47;;;;;;;;;;4887467;29;20501;-90
2021/07/10 08:28:01;;;;;;;16.27;12.00;;;20.80;99.80;;;;;;4906542;29;20497;-88
2021/07/10 08:30:29;;;;;;;16.20;12.90;;;20.90;99.80;;;;;;4907506;29;20848;-89
2021/07/10 08:32:57;;;;;;;14.53;12.53;;;21.00;99.80;;;;;;4910756;29;20976;-89
2021/07/10 08:35:26;;;;;;;15.23;11.60;;;21.10;99.80;;;;;;4912117;29;20488;-90
2021/07/10 08:37:54;;;;;;;13.57;10.50;;;;;;;;;;4907974;29;20473;-90
2021/07/10 08:40:22;;;;;;;17.20;12.80;;;21.30;99.80;;;;;;4906006;29;20476;-89
2021/07/10 08:42:51;;;;;;;13.67;11.00;;;21.40;99.80;;;;;;4902734;29;20965;-90
2021/07/10 08:45:20;;;;;;;13.07;9.80;;;21.60;99.80;;;;;;4899704;29;20483;-91
2021/07/10 08:47:48;;;;;;;13.13;9.83;;;21.70;99.80;;;;;;4910354;29;20478;-89
2021/07/10 08:50:18;;;;;;;14.27;10.90;;;21.90;99.80;;;;;;4909060;29;20466;-89
2021/07/10 08:52:50;;;;;;;13.73;11.27;;;22.00;99.80;;;;;;4902830;28;20554;-85
2021/07/10 08:55:19;;;;;;;16.10;11.30;;;22.10;99.80;;;;;;4927492;28;20492;-85
2021/07/10 08:57:47;;;;;;;13.80;11.20;;;22.10;99.80;;;;;;4908405;29;20469;-85
2021/07/10 09:00:18;;;;;;;13.17;11.37;;;22.10;99.80;;;;;;4911782;29;20480;-84
2021/07/10 09:02:49;;;;;;;12.03;10.77;;;22.20;99.80;;;;;;4929561;29;20468;-84
2021/07/10 09:05:18;;;;;;;14.97;11.47;;;22.30;99.80;;;;;;4924439;29;20487;-85
2021/07/10 09:08:21;;;;;;;13.40;10.60;;;22.40;99.80;;;;;;4925965;29;20886;-84
2021/07/10 09:10:52;;;;;;;11.03;9.83;;;22.60;99.80;;;;;;4916612;29;20848;-84
2021/07/10 09:13:21;;;;;;;11.27;10.13;;;22.60;99.80;;;;;;4918630;29;20479;-84
2021/07/10 09:15:49;;;;;;;13.00;9.67;;;22.60;99.80;;;;;;4907013;29;20501;-85
2021/07/10 09:18:18;;;;;;;10.03;9.03;;;22.70;99.80;;;;;;4917765;29;20520;-84
2021/07/10 09:20:48;;;;;;;11.93;9.63;;;22.80;99.80;;;;;;4924574;29;20495;-85
2021/07/10 09:23:27;;;;;;;10.80;9.60;;;22.90;99.80;;;;;;4899898;28;20501;-86
2021/07/10 09:26:11;;;;;;;10.83;9.70;;;22.80;99.80;;;;;;4905166;29;20457;-85
2021/07/10 09:28:39;;;;;;;10.90;9.73;;;23.00;99.80;;;;;;4911868;29;20476;-90
2021/07/10 09:31:15;;;;;;;9.10;8.20;;;23.20;99.80;;;;;;4907253;29;20487;-90
2021/07/10 09:33:44;;;;;;;13.20;7.43;;;23.30;99.80;;;;;;4912544;29;20841;-90
2021/07/10 09:36:13;;;;;;;8.93;7.20;;;;;;;;;;4915700;29;21046;-90
2021/07/10 09:38:44;;;;;;;7.70;7.00;;;23.60;99.80;;;;;;4917015;29;20481;-90
2021/07/10 09:41:14;;;;;;;10.30;8.50;;;23.80;99.80;;;;;;4925460;29;20875;-90
2021/07/10 09:43:43;;;;;;;8.03;6.90;;;;;;;;;;4922124;29;20488;-90
2021/07/10 09:46:24;;;;;;;11.30;8.60;;;24.10;99.10;;;;;;4928735;29;20489;-88
2021/07/10 09:48:53;;;;;;;11.10;8.10;;;24.20;98.50;;;;;;4936447;29;20484;-87
2021/07/10 09:51:23;;;;;;;8.90;8.00;;;24.30;99.10;;;;;;4929434;29;20491;-87
2021/07/10 09:54:05;;;;;;;8.90;8.00;;;24.30;96.00;;;;;;4905312;29;20518;-87
2021/07/10 09:56:35;;;;;;;12.47;6.80;;;24.30;99.60;;;;;;4898607;29;20560;-88
2021/07/10 09:59:23;;;;;;;9.67;8.77;;;24.20;96.70;;;;;;4908285;29;20485;-88
2021/07/10 10:01:53;;;;;;;8.33;7.53;;;24.30;99.00;;;;;;4934155;28;20479;-88
2021/07/10 10:04:25;;;;;;;8.20;7.50;;;24.50;95.50;;;;;;4920686;28;21067;-88
2021/07/10 10:06:53;;;;;;;7.33;6.60;;;24.80;96.70;;;;;;4931920;28;21069;-88
2021/07/10 10:09:23;;;;;;;8.90;7.87;;;25.00;95.20;;;;;;4911811;29;20508;-88
2021/07/10 10:11:58;;;;;;;8.13;7.40;;;25.30;96.60;;;;;;4912422;29;20514;-88
2021/07/10 10:14:29;;;;;;;7.80;7.10;;;25.60;94.40;;;;;;4905553;28;20939;-88
2021/07/10 10:16:57;;;;;;;10.60;7.17;;;25.80;91.50;;;;;;4926633;29;20476;-88
2021/07/10 10:19:29;;;;;;;8.33;7.23;;;25.70;89.70;;;;;;4922521;29;20482;-89
2021/07/10 10:22:01;;;;;;;7.47;6.87;;;25.60;91.90;;;;;;4925823;29;20486;-88
2021/07/10 10:24:30;;;;;;;6.97;6.37;;;25.80;90.00;;;;;;4916965;29;21323;-89
2021/07/10 10:26:59;;;;;;;6.50;5.90;;;26.00;90.50;;;;;;4911089;29;20901;-88
2021/07/10 10:29:28;;;;;;;7.17;6.47;;;;;;;;;;4907327;29;20490;-89
2021/07/10 10:31:58;;;;;;;6.10;5.60;;;;;;;;;;4922342;28;20475;-89
2021/07/10 10:34:28;;;;;;;6.03;5.53;;;;;;;;;;4918703;28;20481;-89
2021/07/10 10:36:58;;;;;;;7.03;6.43;;;26.40;88.00;;;;;;4902860;29;20482;-88
2021/07/10 10:39:28;;;;;;;6.27;5.67;;;26.30;89.40;;;;;;4918609;29;20469;-87
2021/07/10 10:41:59;;;;;;;7.10;5.80;;;26.40;90.50;;;;;;4911666;28;20555;-87
2021/07/10 10:44:35;;;;;;;6.27;5.77;;;26.50;92.30;;;;;;4917370;29;21033;-86
2021/07/10 10:47:03;;;;;;;6.60;5.93;;;26.60;89.60;;;;;;4927012;28;20483;-86
2021/07/10 10:49:44;;;;;;;7.27;6.30;;;26.60;89.80;;;;;;4927650;29;20477;-85
2021/07/10 10:52:32;;;;;;;6.50;6.00;;;26.70;89.30;;;;;;4924395;29;20959;-88
2021/07/10 10:55:19;;;;;;;6.27;5.77;;;26.70;87.80;;;;;;4922700;29;21257;-88
2021/07/10 10:57:51;;;;;;;6.53;5.80;;;26.70;86.70;;;;;;4898390;29;21228;-87
2021/07/10 11:00:29;;;;;;;6.67;6.07;;;26.70;87.90;;;;;;4922087;28;20494;-87
2021/07/10 11:03:06;;;;;;;6.00;5.50;;;26.60;87.70;;;;;;4935413;28;20491;-87
2021/07/10 11:05:41;;;;;;;5.43;5.03;;;26.60;88.80;;;;;;4922049;29;20487;-87
2021/07/10 11:08:27;;;;;;;7.20;5.20;;;26.80;87.90;;;;;;4902077;29;20472;-91
2021/07/10 11:11:37;;;;;;;6.00;5.50;;;26.90;87.20;;;;;;4922406;29;20468;-90
2021/07/10 11:14:15;;;;;;;5.40;5.00;;;27.00;86.00;;;;;;4874235;29;20481;-89
2021/07/10 11:17:12;;;;;;;6.37;5.77;;;27.00;84.40;;;;;;4863695;29;20478;-89
2021/07/10 11:20:03;;;;;;;6.30;5.80;;;26.90;86.20;;;;;;4897101;28;20889;-89
2021/07/10 11:22:57;;;;;;;5.80;4.50;;;27.20;85.30;;;;;;4913619;29;20461;-88
2021/07/10 11:26:02;;;;;;;5.23;4.83;;;27.30;84.00;;;;;;4916175;28;20888;-87
2021/07/10 11:28:49;;;;;;;6.90;5.40;;;27.10;84.90;;;;;;4928635;28;20479;-88
2021/07/10 11:31:20;;;;;;;8.40;5.00;;;26.80;87.30;;;;;;4904707;29;20892;-88
2021/07/10 11:34:15;;;;;;;8.83;5.70;;;26.60;89.10;;;;;;4925804;28;20955;-90
2021/07/10 11:36:56;;;;;;;9.60;5.50;;;26.30;88.60;;;;;;4915068;29;21018;-90
2021/07/10 11:39:43;;;;;;;5.60;5.20;;;26.20;87.70;;;;;;4909721;28;20480;-89
2021/07/10 11:42:44;;;;;;;6.47;5.23;;;26.10;88.30;;;;;;4915385;28;20514;-90
2021/07/10 11:45:29;;;;;;;8.43;5.47;;;26.10;89.30;;;;;;4920179;28;20488;-92
2021/07/10 11:48:19;;;;;;;6.20;4.70;;;26.10;88.30;;;;;;4924698;29;20503;-90
2021/07/10 11:51:00;;;;;;;5.30;4.80;;;26.30;86.90;;;;;;4872359;29;21979;-89
2021/07/10 11:53:28;;;;;;;5.47;4.97;;;26.40;85.00;;;;;;4920539;28;20468;-89
2021/07/10 11:55:59;;;;;;;5.90;5.20;;;26.50;85.00;;;;;;4927220;28;20467;-90
2021/07/10 11:58:27;;;;;;;5.40;4.90;;;26.50;87.90;;;;;;4900189;29;20983;-91
2021/07/10 12:01:03;;;;;;;5.00;4.60;;;26.50;84.90;;;;;;4945580;28;20472;-90
2021/07/10 12:03:32;;;;;;;5.50;5.03;;;26.60;86.00;;;;;;4923083;29;20473;-90
2021/07/10 12:06:01;;;;;;;4.83;4.43;;;26.70;86.30;;;;;;4924657;29;20477;-90
2021/07/10 12:08:30;;;;;;;7.23;5.00;;;26.70;85.60;;;;;;4920856;29;20507;-90
2021/07/10 12:10:59;;;;;;;5.13;4.40;;;26.80;86.70;;;;;;4921988;28;20475;-89
2021/07/10 12:13:34;;;;;;;4.90;4.50;;;27.10;84.10;;;;;;4927352;29;21135;-90
2021/07/10 12:16:05;;;;;;;5.37;4.60;;;27.90;80.60;;;;;;4925660;28;20466;-91
2021/07/10 12:18:35;;;;;;;4.80;4.40;;;29.00;80.70;;;;;;4919377;29;20497;-90
2021/07/10 12:21:07;;;;;;;4.00;3.70;;;29.40;78.40;;;;;;4910050;29;20489;-91
2021/07/10 12:23:37;;;;;;;4.60;4.30;;;29.70;76.90;;;;;;4917352;28;20516;-91
2021/07/10 12:26:11;;;;;;;4.10;3.70;;;30.70;74.00;;;;;;4921013;28;20475;-92
2021/07/10 12:28:41;;;;;;;4.60;4.20;;;32.20;70.50;;;;;;4925021;28;20558;-91
2021/07/10 12:31:16;;;;;;;3.47;3.27;;;33.30;69.20;;;;;;4916852;28;20995;-91
2021/07/10 12:33:47;;;;;;;3.23;3.03;;;33.90;62.40;;;;;;4929771;29;20489;-90
2021/07/10 12:36:19;;;;;;;3.53;3.23;;;33.90;63.20;;;;;;4929523;28;20511;-94
2021/07/10 12:39:09;;;;;;;3.30;3.10;;;34.20;62.00;;;;;;4932010;29;20528;-95
2021/07/10 12:41:47;;;;;;;3.80;3.47;;;35.60;61.80;;;;;;4911500;29;20564;-94
2021/07/10 12:44:24;;;;;;;3.00;2.80;;;37.00;57.20;;;;;;4920608;29;20488;-94
2021/07/10 12:46:58;;;;;;;3.40;3.10;;;37.20;57.00;;;;;;4921053;29;20483;-95
2021/07/10 12:49:28;;;;;;;3.50;3.30;;;36.30;59.70;;;;;;4932386;29;20465;-94
2021/07/10 12:51:57;;;;;;;3.20;3.00;;;34.90;60.90;;;;;;4920647;29;20468;-94
2021/07/10 12:54:44;;;;;;;3.50;3.30;;;33.10;64.00;;;;;;4921814;29;20481;-94
2021/07/10 12:57:32;;;;;;;6.13;3.73;;;31.30;70.00;;;;;;4923115;29;20566;-94